sensor_id;sensor_type;location;lat;lon;timestamp;P1;durP1;ratioP1;P2;durP2;ratioP2
55993;SDS011;67425;52.126;20.638;2023-02-28T00:00:18;145.77;;;40.83;;
55993;SDS011;67425;52.126;20.638;2023-02-28T00:02:44;123.55;;;36.85;;
55993;SDS011;67425;52.126;20.638;2023-02-28T00:05:10;123.05;;;36.85;;
55993;SDS011;67425;52.126;20.638;2023-02-28T00:07:38;112.93;;;35.33;;
55993;SDS011;67425;52.126;20.638;2023-02-28T00:10:04;118.88;;;37.40;;
55993;SDS011;67425;52.126;20.638;2023-02-28T00:12:32;114.93;;;34.22;;
55993;SDS011;67425;52.126;20.638;2023-02-28T00:14:57;109.22;;;37.42;;
55993;SDS011;67425;52.126;20.638;2023-02-28T00:17:23;76.03;;;26.98;;
55993;SDS011;67425;52.126;20.638;2023-02-28T00:19:48;100.07;;;34.42;;
55993;SDS011;67425;52.126;20.638;2023-02-28T00:22:15;90.63;;;30.17;;
55993;SDS011;67425;52.126;20.638;2023-02-28T00:24:41;83.82;;;28.92;;
55993;SDS011;67425;52.126;20.638;2023-02-28T00:27:07;91.30;;;28.58;;
55993;SDS011;67425;52.126;20.638;2023-02-28T00:29:32;96.43;;;30.08;;
55993;SDS011;67425;52.126;20.638;2023-02-28T00:31:57;102.15;;;30.50;;
55993;SDS011;67425;52.126;20.638;2023-02-28T00:34:23;81.90;;;28.17;;
55993;SDS011;67425;52.126;20.638;2023-02-28T00:36:48;83.85;;;28.85;;
55993;SDS011;67425;52.126;20.638;2023-02-28T00:39:16;89.00;;;31.38;;
55993;SDS011;67425;52.126;20.638;2023-02-28T00:41:41;93.93;;;31.85;;
55993;SDS011;67425;52.126;20.638;2023-02-28T00:44:07;117.85;;;32.55;;
55993;SDS011;67425;52.126;20.638;2023-02-28T00:46:32;98.18;;;34.38;;
55993;SDS011;67425;52.126;20.638;2023-02-28T00:48:58;99.88;;;35.08;;
55993;SDS011;67425;52.126;20.638;2023-02-28T00:51:23;146.43;;;43.47;;
55993;SDS011;67425;52.126;20.638;2023-02-28T00:53:49;133.38;;;41.38;;
55993;SDS011;67425;52.126;20.638;2023-02-28T00:56:14;159.93;;;48.42;;
55993;SDS011;67425;52.126;20.638;2023-02-28T00:58:39;141.30;;;42.30;;
55993;SDS011;67425;52.126;20.638;2023-02-28T01:01:05;158.32;;;45.60;;
55993;SDS011;67425;52.126;20.638;2023-02-28T01:03:31;146.02;;;43.13;;
55993;SDS011;67425;52.126;20.638;2023-02-28T01:05:56;144.40;;;44.05;;
55993;SDS011;67425;52.126;20.638;2023-02-28T01:08:22;148.25;;;44.10;;
55993;SDS011;67425;52.126;20.638;2023-02-28T01:10:48;182.30;;;48.25;;
55993;SDS011;67425;52.126;20.638;2023-02-28T01:13:14;129.52;;;40.92;;
55993;SDS011;67425;52.126;20.638;2023-02-28T01:15:40;143.27;;;43.42;;
55993;SDS011;67425;52.126;20.638;2023-02-28T01:18:10;128.68;;;40.67;;
55993;SDS011;67425;52.126;20.638;2023-02-28T01:20:36;138.60;;;41.05;;
55993;SDS011;67425;52.126;20.638;2023-02-28T01:23:02;159.98;;;46.03;;
55993;SDS011;67425;52.126;20.638;2023-02-28T01:25:27;121.57;;;37.25;;
55993;SDS011;67425;52.126;20.638;2023-02-28T01:27:53;128.63;;;38.20;;
55993;SDS011;67425;52.126;20.638;2023-02-28T01:30:18;85.63;;;31.27;;
55993;SDS011;67425;52.126;20.638;2023-02-28T01:32:44;102.25;;;32.90;;
55993;SDS011;67425;52.126;20.638;2023-02-28T01:35:09;99.40;;;31.52;;
55993;SDS011;67425;52.126;20.638;2023-02-28T01:37:35;82.70;;;29.08;;
55993;SDS011;67425;52.126;20.638;2023-02-28T01:40:00;88.43;;;28.92;;
55993;SDS011;67425;52.126;20.638;2023-02-28T01:42:26;78.60;;;28.38;;
55993;SDS011;67425;52.126;20.638;2023-02-28T01:47:23;80.20;;;26.50;;
55993;SDS011;67425;52.126;20.638;2023-02-28T01:50:12;68.65;;;23.98;;
55993;SDS011;67425;52.126;20.638;2023-02-28T01:52:40;72.40;;;26.35;;
55993;SDS011;67425;52.126;20.638;2023-02-28T01:55:07;63.80;;;27.17;;
55993;SDS011;67425;52.126;20.638;2023-02-28T01:57:37;66.90;;;23.20;;
55993;SDS011;67425;52.126;20.638;2023-02-28T02:00:10;73.47;;;27.30;;
55993;SDS011;67425;52.126;20.638;2023-02-28T02:02:40;65.77;;;26.47;;
55993;SDS011;67425;52.126;20.638;2023-02-28T02:05:18;62.10;;;25.30;;
55993;SDS011;67425;52.126;20.638;2023-02-28T02:07:50;81.75;;;27.85;;
55993;SDS011;67425;52.126;20.638;2023-02-28T02:10:20;74.80;;;27.83;;
55993;SDS011;67425;52.126;20.638;2023-02-28T02:13:12;78.85;;;28.17;;
55993;SDS011;67425;52.126;20.638;2023-02-28T02:18:52;83.50;;;29.98;;
55993;SDS011;67425;52.126;20.638;2023-02-28T03:00:55;95.13;;;29.55;;
55993;SDS011;67425;52.126;20.638;2023-02-28T03:03:24;108.63;;;33.75;;
55993;SDS011;67425;52.126;20.638;2023-02-28T03:05:56;100.97;;;33.35;;
55993;SDS011;67425;52.126;20.638;2023-02-28T03:08:23;104.10;;;34.97;;
55993;SDS011;67425;52.126;20.638;2023-02-28T03:10:59;79.90;;;30.65;;
55993;SDS011;67425;52.126;20.638;2023-02-28T03:24:43;84.60;;;29.20;;
55993;SDS011;67425;52.126;20.638;2023-02-28T03:27:35;98.18;;;30.00;;
55993;SDS011;67425;52.126;20.638;2023-02-28T03:30:10;92.57;;;31.27;;
55993;SDS011;67425;52.126;20.638;2023-02-28T03:35:21;101.68;;;30.85;;
55993;SDS011;67425;52.126;20.638;2023-02-28T03:37:50;74.95;;;29.73;;
55993;SDS011;67425;52.126;20.638;2023-02-28T03:40:20;97.22;;;35.40;;
55993;SDS011;67425;52.126;20.638;2023-02-28T03:42:51;104.18;;;34.85;;
55993;SDS011;67425;52.126;20.638;2023-02-28T03:45:23;95.35;;;33.25;;
55993;SDS011;67425;52.126;20.638;2023-02-28T03:47:59;105.50;;;37.67;;
55993;SDS011;67425;52.126;20.638;2023-02-28T03:50:34;86.82;;;33.88;;
55993;SDS011;67425;52.126;20.638;2023-02-28T03:53:25;90.82;;;32.50;;
55993;SDS011;67425;52.126;20.638;2023-02-28T03:55:56;115.35;;;35.17;;
55993;SDS011;67425;52.126;20.638;2023-02-28T03:58:39;82.57;;;33.85;;
55993;SDS011;67425;52.126;20.638;2023-02-28T04:01:35;79.97;;;30.20;;
55993;SDS011;67425;52.126;20.638;2023-02-28T04:04:06;94.17;;;32.77;;
55993;SDS011;67425;52.126;20.638;2023-02-28T04:06:33;84.90;;;31.42;;
55993;SDS011;67425;52.126;20.638;2023-02-28T04:08:59;87.57;;;29.85;;
55993;SDS011;67425;52.126;20.638;2023-02-28T04:14:00;91.57;;;29.67;;
55993;SDS011;67425;52.126;20.638;2023-02-28T04:16:26;83.65;;;30.67;;
55993;SDS011;67425;52.126;20.638;2023-02-28T04:18:51;81.05;;;29.83;;
55993;SDS011;67425;52.126;20.638;2023-02-28T04:21:16;82.32;;;26.95;;
55993;SDS011;67425;52.126;20.638;2023-02-28T04:23:45;86.88;;;29.30;;
55993;SDS011;67425;52.126;20.638;2023-02-28T04:26:11;93.72;;;30.85;;
55993;SDS011;67425;52.126;20.638;2023-02-28T04:28:37;88.97;;;30.02;;
55993;SDS011;67425;52.126;20.638;2023-02-28T04:31:03;71.22;;;25.98;;
55993;SDS011;67425;52.126;20.638;2023-02-28T04:33:30;77.07;;;27.27;;
55993;SDS011;67425;52.126;20.638;2023-02-28T04:36:03;59.22;;;25.42;;
55993;SDS011;67425;52.126;20.638;2023-02-28T04:38:32;54.55;;;24.15;;
55993;SDS011;67425;52.126;20.638;2023-02-28T04:40:59;70.72;;;24.40;;
55993;SDS011;67425;52.126;20.638;2023-02-28T04:43:28;66.07;;;24.40;;
55993;SDS011;67425;52.126;20.638;2023-02-28T04:45:55;71.38;;;27.92;;
55993;SDS011;67425;52.126;20.638;2023-02-28T04:48:25;75.07;;;23.35;;
55993;SDS011;67425;52.126;20.638;2023-02-28T04:50:52;69.55;;;25.02;;
55993;SDS011;67425;52.126;20.638;2023-02-28T04:53:18;45.55;;;20.90;;
55993;SDS011;67425;52.126;20.638;2023-02-28T04:55:43;69.60;;;23.50;;
55993;SDS011;67425;52.126;20.638;2023-02-28T04:58:09;70.57;;;24.77;;
55993;SDS011;67425;52.126;20.638;2023-02-28T05:00:34;59.80;;;24.48;;
55993;SDS011;67425;52.126;20.638;2023-02-28T05:03:00;71.70;;;29.75;;
55993;SDS011;67425;52.126;20.638;2023-02-28T05:05:25;54.72;;;22.83;;
55993;SDS011;67425;52.126;20.638;2023-02-28T05:07:51;65.15;;;24.42;;
55993;SDS011;67425;52.126;20.638;2023-02-28T05:10:16;56.38;;;22.17;;
55993;SDS011;67425;52.126;20.638;2023-02-28T05:12:41;61.20;;;23.40;;
55993;SDS011;67425;52.126;20.638;2023-02-28T05:15:08;55.15;;;20.63;;
55993;SDS011;67425;52.126;20.638;2023-02-28T05:17:37;57.08;;;21.52;;
55993;SDS011;67425;52.126;20.638;2023-02-28T05:20:03;52.75;;;23.48;;
55993;SDS011;67425;52.126;20.638;2023-02-28T05:22:30;55.13;;;21.90;;
55993;SDS011;67425;52.126;20.638;2023-02-28T05:24:55;57.55;;;22.45;;
55993;SDS011;67425;52.126;20.638;2023-02-28T05:27:20;51.00;;;20.70;;
55993;SDS011;67425;52.126;20.638;2023-02-28T05:29:46;56.58;;;20.65;;
55993;SDS011;67425;52.126;20.638;2023-02-28T05:32:11;64.28;;;22.80;;
55993;SDS011;67425;52.126;20.638;2023-02-28T05:34:37;52.47;;;22.55;;
55993;SDS011;67425;52.126;20.638;2023-02-28T05:37:03;57.67;;;22.40;;
55993;SDS011;67425;52.126;20.638;2023-02-28T05:39:29;51.08;;;21.23;;
55993;SDS011;67425;52.126;20.638;2023-02-28T05:41:55;59.92;;;22.88;;
55993;SDS011;67425;52.126;20.638;2023-02-28T05:44:21;57.13;;;20.20;;
55993;SDS011;67425;52.126;20.638;2023-02-28T05:46:46;44.35;;;19.40;;
55993;SDS011;67425;52.126;20.638;2023-02-28T05:49:11;39.65;;;17.90;;
55993;SDS011;67425;52.126;20.638;2023-02-28T05:51:37;59.58;;;21.15;;
55993;SDS011;67425;52.126;20.638;2023-02-28T05:54:04;57.40;;;21.55;;
55993;SDS011;67425;52.126;20.638;2023-02-28T05:56:30;45.85;;;19.70;;
55993;SDS011;67425;52.126;20.638;2023-02-28T05:58:55;47.40;;;21.73;;
55993;SDS011;67425;52.126;20.638;2023-02-28T06:04:00;56.88;;;21.67;;
55993;SDS011;67425;52.126;20.638;2023-02-28T06:06:26;51.20;;;22.08;;
55993;SDS011;67425;52.126;20.638;2023-02-28T06:08:52;49.83;;;21.85;;
55993;SDS011;67425;52.126;20.638;2023-02-28T06:11:17;44.58;;;21.55;;
55993;SDS011;67425;52.126;20.638;2023-02-28T06:13:44;42.53;;;19.60;;
55993;SDS011;67425;52.126;20.638;2023-02-28T06:16:10;56.60;;;20.60;;
55993;SDS011;67425;52.126;20.638;2023-02-28T06:18:36;64.72;;;22.73;;
55993;SDS011;67425;52.126;20.638;2023-02-28T06:21:01;43.35;;;19.73;;
55993;SDS011;67425;52.126;20.638;2023-02-28T06:23:27;58.22;;;20.67;;
55993;SDS011;67425;52.126;20.638;2023-02-28T06:25:52;35.95;;;16.88;;
55993;SDS011;67425;52.126;20.638;2023-02-28T06:28:18;43.30;;;16.77;;
55993;SDS011;67425;52.126;20.638;2023-02-28T06:30:44;36.97;;;16.17;;
55993;SDS011;67425;52.126;20.638;2023-02-28T06:33:09;20.48;;;13.82;;
55993;SDS011;67425;52.126;20.638;2023-02-28T06:35:35;76.90;;;24.08;;
55993;SDS011;67425;52.126;20.638;2023-02-28T06:38:00;68.15;;;22.88;;
55993;SDS011;67425;52.126;20.638;2023-02-28T06:40:25;49.67;;;21.83;;
55993;SDS011;67425;52.126;20.638;2023-02-28T06:42:51;31.85;;;15.82;;
55993;SDS011;67425;52.126;20.638;2023-02-28T06:45:17;82.50;;;26.73;;
55993;SDS011;67425;52.126;20.638;2023-02-28T06:47:42;98.63;;;34.40;;
55993;SDS011;67425;52.126;20.638;2023-02-28T06:50:10;81.70;;;31.50;;
55993;SDS011;67425;52.126;20.638;2023-02-28T06:52:37;101.50;;;30.98;;
55993;SDS011;67425;52.126;20.638;2023-02-28T06:55:04;97.03;;;32.92;;
55993;SDS011;67425;52.126;20.638;2023-02-28T06:57:31;79.32;;;31.00;;
55993;SDS011;67425;52.126;20.638;2023-02-28T07:00:03;106.20;;;30.80;;
55993;SDS011;67425;52.126;20.638;2023-02-28T07:02:34;79.90;;;31.00;;
55993;SDS011;67425;52.126;20.638;2023-02-28T07:05:00;81.20;;;26.55;;
55993;SDS011;67425;52.126;20.638;2023-02-28T07:07:26;72.95;;;21.25;;
55993;SDS011;67425;52.126;20.638;2023-02-28T07:09:51;65.00;;;22.10;;
55993;SDS011;67425;52.126;20.638;2023-02-28T07:12:16;57.92;;;23.23;;
55993;SDS011;67425;52.126;20.638;2023-02-28T07:14:42;58.72;;;20.80;;
55993;SDS011;67425;52.126;20.638;2023-02-28T07:17:08;49.65;;;21.80;;
55993;SDS011;67425;52.126;20.638;2023-02-28T07:19:35;56.90;;;19.52;;
55993;SDS011;67425;52.126;20.638;2023-02-28T07:22:01;47.03;;;17.67;;
55993;SDS011;67425;52.126;20.638;2023-02-28T07:24:27;46.05;;;16.88;;
55993;SDS011;67425;52.126;20.638;2023-02-28T07:26:54;50.08;;;18.75;;
55993;SDS011;67425;52.126;20.638;2023-02-28T07:29:20;46.53;;;18.95;;
55993;SDS011;67425;52.126;20.638;2023-02-28T07:31:45;37.75;;;14.70;;
55993;SDS011;67425;52.126;20.638;2023-02-28T07:34:11;29.20;;;13.88;;
55993;SDS011;67425;52.126;20.638;2023-02-28T07:36:37;32.88;;;13.15;;
55993;SDS011;67425;52.126;20.638;2023-02-28T07:39:02;36.60;;;12.13;;
55993;SDS011;67425;52.126;20.638;2023-02-28T07:41:29;16.73;;;8.77;;
55993;SDS011;67425;52.126;20.638;2023-02-28T07:43:54;33.85;;;12.18;;
55993;SDS011;67425;52.126;20.638;2023-02-28T07:46:22;26.42;;;11.90;;
55993;SDS011;67425;52.126;20.638;2023-02-28T07:48:47;27.40;;;12.02;;
55993;SDS011;67425;52.126;20.638;2023-02-28T07:51:13;29.80;;;10.98;;
55993;SDS011;67425;52.126;20.638;2023-02-28T07:53:38;30.42;;;12.40;;
55993;SDS011;67425;52.126;20.638;2023-02-28T07:56:04;30.45;;;11.77;;
55993;SDS011;67425;52.126;20.638;2023-02-28T07:58:30;29.08;;;11.27;;
55993;SDS011;67425;52.126;20.638;2023-02-28T08:00:56;41.65;;;10.57;;
55993;SDS011;67425;52.126;20.638;2023-02-28T08:03:23;21.60;;;9.15;;
55993;SDS011;67425;52.126;20.638;2023-02-28T08:05:49;18.60;;;8.30;;
55993;SDS011;67425;52.126;20.638;2023-02-28T08:08:15;23.25;;;8.93;;
55993;SDS011;67425;52.126;20.638;2023-02-28T08:10:41;24.65;;;8.45;;
55993;SDS011;67425;52.126;20.638;2023-02-28T08:13:07;16.67;;;7.32;;
55993;SDS011;67425;52.126;20.638;2023-02-28T08:15:32;27.98;;;7.97;;
55993;SDS011;67425;52.126;20.638;2023-02-28T08:17:58;20.52;;;8.00;;
55993;SDS011;67425;52.126;20.638;2023-02-28T08:20:24;12.35;;;5.07;;
55993;SDS011;67425;52.126;20.638;2023-02-28T08:22:49;10.20;;;5.05;;
55993;SDS011;67425;52.126;20.638;2023-02-28T08:25:15;5.65;;;3.53;;
55993;SDS011;67425;52.126;20.638;2023-02-28T08:27:40;8.85;;;5.45;;
55993;SDS011;67425;52.126;20.638;2023-02-28T08:30:06;8.65;;;5.30;;
55993;SDS011;67425;52.126;20.638;2023-02-28T08:32:32;12.32;;;6.68;;
55993;SDS011;67425;52.126;20.638;2023-02-28T08:34:58;12.50;;;6.03;;
55993;SDS011;67425;52.126;20.638;2023-02-28T08:37:24;11.77;;;5.43;;
55993;SDS011;67425;52.126;20.638;2023-02-28T08:39:49;11.70;;;6.00;;
55993;SDS011;67425;52.126;20.638;2023-02-28T08:42:15;11.50;;;5.00;;
55993;SDS011;67425;52.126;20.638;2023-02-28T08:44:40;8.98;;;5.53;;
55993;SDS011;67425;52.126;20.638;2023-02-28T08:47:05;12.13;;;6.25;;
55993;SDS011;67425;52.126;20.638;2023-02-28T08:49:31;27.50;;;10.27;;
55993;SDS011;67425;52.126;20.638;2023-02-28T08:51:57;16.20;;;7.15;;
55993;SDS011;67425;52.126;20.638;2023-02-28T08:54:22;11.93;;;5.85;;
55993;SDS011;67425;52.126;20.638;2023-02-28T08:56:48;15.43;;;5.90;;
55993;SDS011;67425;52.126;20.638;2023-02-28T08:59:13;10.65;;;6.47;;
55993;SDS011;67425;52.126;20.638;2023-02-28T09:01:39;15.32;;;6.53;;
55993;SDS011;67425;52.126;20.638;2023-02-28T09:04:06;17.88;;;6.70;;
55993;SDS011;67425;52.126;20.638;2023-02-28T09:06:33;11.60;;;5.82;;
55993;SDS011;67425;52.126;20.638;2023-02-28T09:08:59;9.02;;;6.10;;
55993;SDS011;67425;52.126;20.638;2023-02-28T09:11:26;8.85;;;5.63;;
55993;SDS011;67425;52.126;20.638;2023-02-28T09:13:52;8.82;;;5.80;;
55993;SDS011;67425;52.126;20.638;2023-02-28T09:16:17;11.73;;;6.05;;
55993;SDS011;67425;52.126;20.638;2023-02-28T09:18:44;20.73;;;7.05;;
55993;SDS011;67425;52.126;20.638;2023-02-28T09:21:10;10.23;;;5.93;;
55993;SDS011;67425;52.126;20.638;2023-02-28T09:23:39;24.08;;;8.25;;
55993;SDS011;67425;52.126;20.638;2023-02-28T09:26:05;10.57;;;5.53;;
55993;SDS011;67425;52.126;20.638;2023-02-28T09:28:31;11.40;;;6.13;;
55993;SDS011;67425;52.126;20.638;2023-02-28T09:30:57;11.52;;;5.43;;
55993;SDS011;67425;52.126;20.638;2023-02-28T09:33:23;13.50;;;6.85;;
55993;SDS011;67425;52.126;20.638;2023-02-28T09:35:50;12.05;;;6.22;;
55993;SDS011;67425;52.126;20.638;2023-02-28T09:38:17;17.15;;;6.38;;
55993;SDS011;67425;52.126;20.638;2023-02-28T09:40:48;14.20;;;7.13;;
55993;SDS011;67425;52.126;20.638;2023-02-28T09:43:20;10.13;;;7.00;;
55993;SDS011;67425;52.126;20.638;2023-02-28T09:45:56;10.63;;;7.07;;
55993;SDS011;67425;52.126;20.638;2023-02-28T09:48:28;9.32;;;5.65;;
55993;SDS011;67425;52.126;20.638;2023-02-28T09:51:03;8.20;;;4.83;;
55993;SDS011;67425;52.126;20.638;2023-02-28T09:53:35;10.88;;;6.65;;
55993;SDS011;67425;52.126;20.638;2023-02-28T09:56:05;16.80;;;7.63;;
55993;SDS011;67425;52.126;20.638;2023-02-28T09:58:40;8.20;;;5.13;;
55993;SDS011;67425;52.126;20.638;2023-02-28T10:01:21;11.40;;;5.57;;
55993;SDS011;67425;52.126;20.638;2023-02-28T10:06:51;10.43;;;6.70;;
55993;SDS011;67425;52.126;20.638;2023-02-28T10:09:22;6.13;;;2.40;;
55993;SDS011;67425;52.126;20.638;2023-02-28T10:11:50;16.15;;;6.57;;
55993;SDS011;67425;52.126;20.638;2023-02-28T10:14:18;17.42;;;6.22;;
55993;SDS011;67425;52.126;20.638;2023-02-28T10:22:24;2.65;;;2.45;;
55993;SDS011;67425;52.126;20.638;2023-02-28T10:24:56;11.82;;;7.05;;
55993;SDS011;67425;52.126;20.638;2023-02-28T10:27:31;21.70;;;6.40;;
55993;SDS011;67425;52.126;20.638;2023-02-28T10:30:01;14.57;;;5.47;;
55993;SDS011;67425;52.126;20.638;2023-02-28T10:32:30;5.57;;;3.08;;
55993;SDS011;67425;52.126;20.638;2023-02-28T10:37:49;10.60;;;6.18;;
55993;SDS011;67425;52.126;20.638;2023-02-28T10:43:03;24.02;;;7.75;;
55993;SDS011;67425;52.126;20.638;2023-02-28T10:45:31;25.95;;;7.38;;
55993;SDS011;67425;52.126;20.638;2023-02-28T10:48:03;11.48;;;6.00;;
55993;SDS011;67425;52.126;20.638;2023-02-28T10:56:15;9.57;;;4.13;;
55993;SDS011;67425;52.126;20.638;2023-02-28T10:58:54;13.40;;;7.18;;
55993;SDS011;67425;52.126;20.638;2023-02-28T11:02:08;15.07;;;7.90;;
55993;SDS011;67425;52.126;20.638;2023-02-28T11:07:00;14.75;;;6.90;;
55993;SDS011;67425;52.126;20.638;2023-02-28T11:09:29;23.23;;;8.57;;
55993;SDS011;67425;52.126;20.638;2023-02-28T11:11:59;11.02;;;6.32;;
55993;SDS011;67425;52.126;20.638;2023-02-28T11:14:28;12.13;;;6.07;;
55993;SDS011;67425;52.126;20.638;2023-02-28T11:16:57;8.23;;;5.60;;
55993;SDS011;67425;52.126;20.638;2023-02-28T11:19:27;9.65;;;5.82;;
55993;SDS011;67425;52.126;20.638;2023-02-28T11:21:56;9.05;;;6.15;;
55993;SDS011;67425;52.126;20.638;2023-02-28T11:24:27;12.50;;;6.75;;
55993;SDS011;67425;52.126;20.638;2023-02-28T11:27:00;23.45;;;6.75;;
55993;SDS011;67425;52.126;20.638;2023-02-28T11:29:27;10.57;;;6.47;;
55993;SDS011;67425;52.126;20.638;2023-02-28T11:34:40;11.55;;;5.68;;
55993;SDS011;67425;52.126;20.638;2023-02-28T11:37:11;13.20;;;5.32;;
55993;SDS011;67425;52.126;20.638;2023-02-28T11:39:39;24.40;;;9.23;;
55993;SDS011;67425;52.126;20.638;2023-02-28T11:45:18;11.73;;;4.88;;
55993;SDS011;67425;52.126;20.638;2023-02-28T11:47:48;16.52;;;6.15;;
55993;SDS011;67425;52.126;20.638;2023-02-28T11:53:39;10.98;;;5.53;;
55993;SDS011;67425;52.126;20.638;2023-02-28T11:56:19;5.38;;;3.92;;
55993;SDS011;67425;52.126;20.638;2023-02-28T11:59:14;13.27;;;5.18;;
55993;SDS011;67425;52.126;20.638;2023-02-28T12:06:57;8.77;;;5.10;;
55993;SDS011;67425;52.126;20.638;2023-02-28T12:09:47;10.38;;;6.18;;
55993;SDS011;67425;52.126;20.638;2023-02-28T12:25:59;12.17;;;6.00;;
55993;SDS011;67425;52.126;20.638;2023-02-28T12:28:53;11.73;;;5.95;;
55993;SDS011;67425;52.126;20.638;2023-02-28T12:31:28;10.25;;;5.45;;
55993;SDS011;67425;52.126;20.638;2023-02-28T12:34:03;13.93;;;6.60;;
55993;SDS011;67425;52.126;20.638;2023-02-28T12:36:36;39.83;;;11.43;;
55993;SDS011;67425;52.126;20.638;2023-02-28T12:39:12;14.85;;;5.97;;
55993;SDS011;67425;52.126;20.638;2023-02-28T12:41:54;14.43;;;6.55;;
55993;SDS011;67425;52.126;20.638;2023-02-28T12:46:54;15.00;;;7.47;;
55993;SDS011;67425;52.126;20.638;2023-02-28T12:49:27;7.70;;;5.35;;
55993;SDS011;67425;52.126;20.638;2023-02-28T12:51:59;11.60;;;5.45;;
55993;SDS011;67425;52.126;20.638;2023-02-28T12:54:32;12.13;;;6.63;;
55993;SDS011;67425;52.126;20.638;2023-02-28T13:00:04;8.05;;;4.63;;
55993;SDS011;67425;52.126;20.638;2023-02-28T13:08:08;11.18;;;6.68;;
55993;SDS011;67425;52.126;20.638;2023-02-28T13:10:58;10.85;;;6.32;;
55993;SDS011;67425;52.126;20.638;2023-02-28T13:13:24;12.27;;;6.60;;
55993;SDS011;67425;52.126;20.638;2023-02-28T13:18:41;10.95;;;5.95;;
55993;SDS011;67425;52.126;20.638;2023-02-28T13:21:09;7.55;;;5.85;;
55993;SDS011;67425;52.126;20.638;2023-02-28T13:26:20;5.00;;;3.88;;
55993;SDS011;67425;52.126;20.638;2023-02-28T13:31:25;11.02;;;5.65;;
55993;SDS011;67425;52.126;20.638;2023-02-28T13:38:56;10.15;;;5.07;;
55993;SDS011;67425;52.126;20.638;2023-02-28T13:51:51;13.48;;;6.72;;
55993;SDS011;67425;52.126;20.638;2023-02-28T13:56:56;10.65;;;5.95;;
55993;SDS011;67425;52.126;20.638;2023-02-28T14:05:29;13.20;;;6.60;;
55993;SDS011;67425;52.126;20.638;2023-02-28T14:07:58;13.02;;;6.65;;
55993;SDS011;67425;52.126;20.638;2023-02-28T14:10:30;12.57;;;6.45;;
55993;SDS011;67425;52.126;20.638;2023-02-28T14:12:59;12.88;;;7.30;;
55993;SDS011;67425;52.126;20.638;2023-02-28T14:17:58;11.95;;;6.65;;
55993;SDS011;67425;52.126;20.638;2023-02-28T14:20:27;12.60;;;6.32;;
55993;SDS011;67425;52.126;20.638;2023-02-28T14:25:45;36.13;;;7.40;;
55993;SDS011;67425;52.126;20.638;2023-02-28T14:28:40;12.48;;;7.03;;
55993;SDS011;67425;52.126;20.638;2023-02-28T14:31:13;17.13;;;8.02;;
55993;SDS011;67425;52.126;20.638;2023-02-28T14:36:37;14.15;;;8.25;;
55993;SDS011;67425;52.126;20.638;2023-02-28T14:44:00;13.07;;;7.90;;
55993;SDS011;67425;52.126;20.638;2023-02-28T14:46:37;20.05;;;10.30;;
55993;SDS011;67425;52.126;20.638;2023-02-28T14:49:05;18.52;;;8.40;;
55993;SDS011;67425;52.126;20.638;2023-02-28T14:51:32;25.92;;;9.98;;
55993;SDS011;67425;52.126;20.638;2023-02-28T14:53:59;19.63;;;9.85;;
55993;SDS011;67425;52.126;20.638;2023-02-28T14:56:28;28.60;;;14.70;;
55993;SDS011;67425;52.126;20.638;2023-02-28T14:58:59;16.55;;;7.55;;
55993;SDS011;67425;52.126;20.638;2023-02-28T15:01:25;19.45;;;9.32;;
55993;SDS011;67425;52.126;20.638;2023-02-28T15:03:58;19.00;;;8.45;;
55993;SDS011;67425;52.126;20.638;2023-02-28T15:06:26;13.25;;;8.25;;
55993;SDS011;67425;52.126;20.638;2023-02-28T15:11:47;17.45;;;8.40;;
55993;SDS011;67425;52.126;20.638;2023-02-28T15:14:15;19.38;;;9.05;;
55993;SDS011;67425;52.126;20.638;2023-02-28T15:16:44;25.02;;;12.80;;
55993;SDS011;67425;52.126;20.638;2023-02-28T15:19:17;21.25;;;10.88;;
55993;SDS011;67425;52.126;20.638;2023-02-28T15:21:49;16.80;;;8.82;;
55993;SDS011;67425;52.126;20.638;2023-02-28T15:26:55;20.70;;;8.15;;
55993;SDS011;67425;52.126;20.638;2023-02-28T15:29:24;16.63;;;7.78;;
55993;SDS011;67425;52.126;20.638;2023-02-28T15:31:56;33.92;;;15.63;;
55993;SDS011;67425;52.126;20.638;2023-02-28T15:36:59;44.28;;;17.95;;
55993;SDS011;67425;52.126;20.638;2023-02-28T15:39:25;35.33;;;17.50;;
55993;SDS011;67425;52.126;20.638;2023-02-28T15:41:54;21.83;;;8.93;;
55993;SDS011;67425;52.126;20.638;2023-02-28T15:44:43;18.92;;;9.13;;
55993;SDS011;67425;52.126;20.638;2023-02-28T15:47:16;32.28;;;15.00;;
55993;SDS011;67425;52.126;20.638;2023-02-28T15:49:45;36.72;;;12.65;;
55993;SDS011;67425;52.126;20.638;2023-02-28T15:57:45;26.45;;;12.32;;
55993;SDS011;67425;52.126;20.638;2023-02-28T16:00:14;45.50;;;18.77;;
55993;SDS011;67425;52.126;20.638;2023-02-28T16:02:41;42.58;;;15.77;;
55993;SDS011;67425;52.126;20.638;2023-02-28T16:07:32;24.67;;;11.88;;
55993;SDS011;67425;52.126;20.638;2023-02-28T16:09:59;34.53;;;10.60;;
55993;SDS011;67425;52.126;20.638;2023-02-28T16:12:28;25.83;;;11.82;;
55993;SDS011;67425;52.126;20.638;2023-02-28T16:14:55;29.17;;;10.55;;
55993;SDS011;67425;52.126;20.638;2023-02-28T16:17:27;29.63;;;11.27;;
55993;SDS011;67425;52.126;20.638;2023-02-28T16:19:55;25.42;;;12.07;;
55993;SDS011;67425;52.126;20.638;2023-02-28T16:22:21;26.10;;;10.65;;
55993;SDS011;67425;52.126;20.638;2023-02-28T16:24:47;32.45;;;14.70;;
55993;SDS011;67425;52.126;20.638;2023-02-28T16:27:17;25.80;;;12.63;;
55993;SDS011;67425;52.126;20.638;2023-02-28T16:29:43;41.17;;;16.95;;
55993;SDS011;67425;52.126;20.638;2023-02-28T16:32:10;98.55;;;32.17;;
55993;SDS011;67425;52.126;20.638;2023-02-28T16:34:38;57.35;;;21.42;;
55993;SDS011;67425;52.126;20.638;2023-02-28T16:37:04;53.47;;;19.63;;
55993;SDS011;67425;52.126;20.638;2023-02-28T16:39:35;49.38;;;18.65;;
55993;SDS011;67425;52.126;20.638;2023-02-28T16:42:01;34.95;;;15.77;;
55993;SDS011;67425;52.126;20.638;2023-02-28T16:44:32;39.75;;;15.90;;
55993;SDS011;67425;52.126;20.638;2023-02-28T16:46:59;37.33;;;16.58;;
55993;SDS011;67425;52.126;20.638;2023-02-28T16:49:25;29.65;;;14.45;;
55993;SDS011;67425;52.126;20.638;2023-02-28T16:51:51;29.65;;;14.25;;
55993;SDS011;67425;52.126;20.638;2023-02-28T16:54:17;34.67;;;15.73;;
55993;SDS011;67425;52.126;20.638;2023-02-28T16:56:44;33.67;;;15.57;;
55993;SDS011;67425;52.126;20.638;2023-02-28T16:59:11;49.40;;;18.02;;
55993;SDS011;67425;52.126;20.638;2023-02-28T17:01:36;32.05;;;14.73;;
55993;SDS011;67425;52.126;20.638;2023-02-28T17:04:02;29.48;;;14.18;;
55993;SDS011;67425;52.126;20.638;2023-02-28T17:06:28;44.78;;;15.35;;
55993;SDS011;67425;52.126;20.638;2023-02-28T17:08:55;44.15;;;14.65;;
55993;SDS011;67425;52.126;20.638;2023-02-28T17:11:22;40.72;;;13.38;;
55993;SDS011;67425;52.126;20.638;2023-02-28T17:13:47;39.45;;;15.07;;
55993;SDS011;67425;52.126;20.638;2023-02-28T17:16:27;33.35;;;14.57;;
55993;SDS011;67425;52.126;20.638;2023-02-28T17:18:54;25.48;;;13.20;;
55993;SDS011;67425;52.126;20.638;2023-02-28T17:21:21;33.65;;;15.85;;
55993;SDS011;67425;52.126;20.638;2023-02-28T17:23:47;38.83;;;16.23;;
55993;SDS011;67425;52.126;20.638;2023-02-28T17:26:17;48.25;;;18.73;;
55993;SDS011;67425;52.126;20.638;2023-02-28T17:28:47;51.65;;;19.65;;